Airfield :
LOGIN :

Register | Disclaimer

   EN    FR    IT 

 










Legend :    VFR   Marginal VFR   IFR   Intensive IFR   Very Intensive IFR
Visi :
Ceiling :
>= 8 km
>= 3000ft
5 to 8 km
1000 to 3000 ft
1500m to 5 km
500 to 1000 ft
800 to 1500m
200 to 500 ft
< 800m
< 200 ft
Symbols :   Thunderstorms  Fog  Heavy snow  Heavy precipitations  Wind > 20 kt
SIGMETs :     Misc.  Thunderstorms  Icing  Turbulence  Mountain Waves  Volcanic Ashes






- Airport Elevation : 243 ft
- IATA code : HOV


ENOV - Ørsta-Volda , Hovden

CURRENT METAR :
  • 250550Z AUTO 35003KT 9999 NCD 22/01 Q1015 RMK WIND RWY 24 09004KT WIND 2090FT 16024KT

EXPIRED METARs :
  • 250520Z AUTO VRB01KT 9999 NCD 21/00 Q1015 RMK WIND RWY 24 05005KT WIND 2090FT 16023KT
  • 250450Z AUTO VRB02KT 9999 NCD 21/M00 Q1015 RMK WIND RWY 24 08008KT WIND 2090FT 16021KT
  • 250420Z VRB01KT 9999 FEW060 20/00 Q1015 RMK WIND RWY 24 08007KT WIND 2090FT 16024KT
  • 250350Z VRB03KT 9999 FEW060 18/02 Q1015 RMK WIND RWY 24 00000KT WIND 2090FT 16024KT
  • 250320Z AUTO 00000KT 9999 FEW190/// 15/04 Q1015 RMK WIND RWY 24 00000KT WIND 2090FT 16024KT
  • 250250Z AUTO 00000KT 9999 NCD 13/04 Q1015 RMK WIND RWY 24 25001KT WIND 2090FT 17023KT
  • 250220Z AUTO 29001KT 9999 NCD 14/02 Q1015 RMK WIND RWY 24 28001KT WIND 2090FT 17023KT
  • 250150Z AUTO 00000KT 9999 NCD 13/04 Q1015 RMK WIND RWY 24 VRB01KT WIND 2090FT 16022KT
  • 250120Z AUTO 00000KT 9999 FEW180/// 13/05 Q1015 RMK WIND RWY 24 VRB03KT WIND 2090FT 16023KT

TAF TAF ENOV
Valid from the 25 at 06:00 until the 25 at 15:00 UTC


250500Z 2506/2515 VRB03KT 9999 FEW060
BECMG 2509/2511 24010KT



MET'MAP, your aeronautical weather chart ! - Copyright ORBIFLY December 2007 - Disclaimer

ORBIFLY MET'MAP TEAM :

Programming & Development : Alexandra Zaïnal
Original concept : Baudouin d'Aumeries
Technical & hardware support : Manuel Goepfert
Assistance : Marc-Olivier Méhu




SOURCES & CREDITS :

   NOAA